sensor_id;sensor_type;location;lat;lon;timestamp;pressure;altitude;pressure_sealevel;temperature;humidity
70458;BME280;57919;56.194;95.716;2023-07-13T00:02:27;99199.19;;;17.05;75.63
70458;BME280;57919;56.194;95.716;2023-07-13T00:12:38;99187.25;;;19.25;68.95
70458;BME280;57919;56.194;95.716;2023-07-13T00:22:41;99187.00;;;20.62;66.75
70458;BME280;57919;56.194;95.716;2023-07-13T00:32:44;99183.41;;;22.71;62.36
70458;BME280;57919;56.194;95.716;2023-07-13T00:42:47;99187.44;;;23.98;57.27
70458;BME280;57919;56.194;95.716;2023-07-13T00:52:53;99181.75;;;24.74;55.37
70458;BME280;57919;56.194;95.716;2023-07-13T01:02:58;99174.66;;;25.03;53.19
70458;BME280;57919;56.194;95.716;2023-07-13T01:13:01;99167.41;;;25.57;51.87
70458;BME280;57919;56.194;95.716;2023-07-13T01:23:07;99161.00;;;26.46;48.99
70458;BME280;57919;56.194;95.716;2023-07-13T01:33:09;99155.31;;;26.53;48.96
70458;BME280;57919;56.194;95.716;2023-07-13T01:43:12;99142.31;;;27.52;47.78
70458;BME280;57919;56.194;95.716;2023-07-13T01:53:14;99137.78;;;28.70;45.91
70458;BME280;57919;56.194;95.716;2023-07-13T02:03:16;99143.72;;;28.40;44.90
70458;BME280;57919;56.194;95.716;2023-07-13T02:13:21;99133.72;;;28.94;44.34
70458;BME280;57919;56.194;95.716;2023-07-13T02:23:24;99112.06;;;29.88;42.70
70458;BME280;57919;56.194;95.716;2023-07-13T02:33:27;99105.84;;;29.54;43.11
70458;BME280;57919;56.194;95.716;2023-07-13T02:43:28;99098.34;;;30.78;40.75
70458;BME280;57919;56.194;95.716;2023-07-13T02:53:32;99080.72;;;31.25;39.77
70458;BME280;57919;56.194;95.716;2023-07-13T03:03:35;99071.00;;;31.42;38.72
70458;BME280;57919;56.194;95.716;2023-07-13T03:13:38;99065.16;;;30.92;38.08
70458;BME280;57919;56.194;95.716;2023-07-13T03:23:41;99063.22;;;30.92;38.88
70458;BME280;57919;56.194;95.716;2023-07-13T03:33:44;99057.41;;;31.82;36.30
70458;BME280;57919;56.194;95.716;2023-07-13T03:43:47;99047.66;;;32.35;35.49
70458;BME280;57919;56.194;95.716;2023-07-13T03:53:52;99043.16;;;31.05;36.73
70458;BME280;57919;56.194;95.716;2023-07-13T04:03:55;99026.09;;;32.00;34.70
70458;BME280;57919;56.194;95.716;2023-07-13T04:13:59;99001.69;;;31.60;33.00
70458;BME280;57919;56.194;95.716;2023-07-13T04:24:05;99000.06;;;32.25;31.84
70458;BME280;57919;56.194;95.716;2023-07-13T04:34:07;98993.16;;;32.97;32.84
70458;BME280;57919;56.194;95.716;2023-07-13T04:44:09;98988.56;;;32.41;32.65
70458;BME280;57919;56.194;95.716;2023-07-13T04:54:13;98973.44;;;32.32;32.57
70458;BME280;57919;56.194;95.716;2023-07-13T05:04:17;98966.09;;;33.26;31.77
70458;BME280;57919;56.194;95.716;2023-07-13T05:14:19;98946.84;;;34.51;30.00
70458;BME280;57919;56.194;95.716;2023-07-13T05:24:21;98924.06;;;34.23;28.93
70458;BME280;57919;56.194;95.716;2023-07-13T05:34:23;98896.59;;;35.11;28.95
70458;BME280;57919;56.194;95.716;2023-07-13T05:44:25;98877.81;;;34.63;29.11
70458;BME280;57919;56.194;95.716;2023-07-13T05:54:27;98875.69;;;33.74;30.72
70458;BME280;57919;56.194;95.716;2023-07-13T06:04:29;98858.59;;;33.41;31.12
70458;BME280;57919;56.194;95.716;2023-07-13T06:14:31;98854.44;;;33.33;31.00
70458;BME280;57919;56.194;95.716;2023-07-13T06:24:33;98832.16;;;32.64;32.08
70458;BME280;57919;56.194;95.716;2023-07-13T06:34:35;98813.25;;;32.90;31.80
70458;BME280;57919;56.194;95.716;2023-07-13T06:44:37;98812.00;;;32.62;33.09
70458;BME280;57919;56.194;95.716;2023-07-13T06:54:39;98796.19;;;32.37;32.42
70458;BME280;57919;56.194;95.716;2023-07-13T07:04:41;98784.94;;;32.91;31.88
70458;BME280;57919;56.194;95.716;2023-07-13T07:14:43;98773.03;;;32.65;32.20
70458;BME280;57919;56.194;95.716;2023-07-13T07:24:45;98767.41;;;32.70;31.87
70458;BME280;57919;56.194;95.716;2023-07-13T07:34:49;98742.19;;;33.10;31.33
70458;BME280;57919;56.194;95.716;2023-07-13T07:44:51;98732.81;;;32.90;31.47
70458;BME280;57919;56.194;95.716;2023-07-13T07:54:55;98718.72;;;32.12;32.19
70458;BME280;57919;56.194;95.716;2023-07-13T08:04:57;98710.00;;;30.52;34.43
70458;BME280;57919;56.194;95.716;2023-07-13T08:14:59;98697.84;;;29.91;35.65
70458;BME280;57919;56.194;95.716;2023-07-13T08:25:02;98673.94;;;30.10;35.92
70458;BME280;57919;56.194;95.716;2023-07-13T08:35:05;98663.97;;;30.75;34.62
70458;BME280;57919;56.194;95.716;2023-07-13T08:45:23;98675.97;;;30.66;33.80
70458;BME280;57919;56.194;95.716;2023-07-13T08:55:31;98664.50;;;30.42;34.46
70458;BME280;57919;56.194;95.716;2023-07-13T09:05:38;98644.63;;;30.08;34.45
70458;BME280;57919;56.194;95.716;2023-07-13T09:15:47;98646.72;;;29.65;35.26
70458;BME280;57919;56.194;95.716;2023-07-13T09:26:40;98636.03;;;29.47;35.58
70458;BME280;57919;56.194;95.716;2023-07-13T09:36:31;98626.91;;;29.09;35.51
70458;BME280;57919;56.194;95.716;2023-07-13T09:46:33;98605.97;;;28.27;36.28
70458;BME280;57919;56.194;95.716;2023-07-13T09:56:38;98606.75;;;28.55;37.23
70458;BME280;57919;56.194;95.716;2023-07-13T10:06:41;98590.00;;;28.50;37.01
70458;BME280;57919;56.194;95.716;2023-07-13T10:16:59;98567.28;;;28.26;37.24
70458;BME280;57919;56.194;95.716;2023-07-13T10:27:15;98560.75;;;27.83;37.40
70458;BME280;57919;56.194;95.716;2023-07-13T10:37:31;98538.75;;;27.55;37.94
70458;BME280;57919;56.194;95.716;2023-07-13T10:47:35;98535.53;;;27.41;38.21
70458;BME280;57919;56.194;95.716;2023-07-13T10:57:42;98544.34;;;27.33;38.46
70458;BME280;57919;56.194;95.716;2023-07-13T11:08:20;98530.41;;;27.06;39.74
70458;BME280;57919;56.194;95.716;2023-07-13T11:18:31;98525.59;;;26.80;40.67
70458;BME280;57919;56.194;95.716;2023-07-13T11:28:35;98515.81;;;26.55;41.29
70458;BME280;57919;56.194;95.716;2023-07-13T11:38:43;98515.84;;;26.38;41.70
70458;BME280;57919;56.194;95.716;2023-07-13T11:48:47;98521.66;;;26.37;41.91
70458;BME280;57919;56.194;95.716;2023-07-13T11:58:56;98520.72;;;26.31;42.54
70458;BME280;57919;56.194;95.716;2023-07-13T12:09:02;98527.84;;;26.11;43.00
70458;BME280;57919;56.194;95.716;2023-07-13T12:19:18;98518.72;;;25.93;43.68
70458;BME280;57919;56.194;95.716;2023-07-13T12:29:22;98505.38;;;25.62;44.26
70458;BME280;57919;56.194;95.716;2023-07-13T12:39:37;98512.31;;;25.48;44.54
70458;BME280;57919;56.194;95.716;2023-07-13T12:49:53;98479.06;;;25.31;45.66
70458;BME280;57919;56.194;95.716;2023-07-13T12:59:56;98468.22;;;25.29;45.91
70458;BME280;57919;56.194;95.716;2023-07-13T13:09:58;98484.31;;;25.16;46.73
70458;BME280;57919;56.194;95.716;2023-07-13T13:20:00;98481.91;;;24.67;47.43
70458;BME280;57919;56.194;95.716;2023-07-13T13:30:16;98464.75;;;24.19;48.23
70458;BME280;57919;56.194;95.716;2023-07-13T13:40:22;98474.38;;;24.16;48.77
70458;BME280;57919;56.194;95.716;2023-07-13T13:50:28;98449.38;;;23.99;49.43
70458;BME280;57919;56.194;95.716;2023-07-13T14:00:31;98442.75;;;23.77;50.60
70458;BME280;57919;56.194;95.716;2023-07-13T14:10:33;98429.84;;;23.47;51.02
70458;BME280;57919;56.194;95.716;2023-07-13T14:20:35;98422.22;;;23.19;51.71
70458;BME280;57919;56.194;95.716;2023-07-13T14:30:38;98417.09;;;22.93;51.95
70458;BME280;57919;56.194;95.716;2023-07-13T14:40:40;98411.31;;;22.65;52.39
70458;BME280;57919;56.194;95.716;2023-07-13T14:50:42;98401.94;;;22.36;53.06
70458;BME280;57919;56.194;95.716;2023-07-13T15:00:46;98399.28;;;22.11;53.67
70458;BME280;57919;56.194;95.716;2023-07-13T15:10:48;98385.84;;;21.96;54.03
70458;BME280;57919;56.194;95.716;2023-07-13T15:20:51;98392.25;;;21.90;54.24
70458;BME280;57919;56.194;95.716;2023-07-13T15:30:55;98391.25;;;21.84;54.88
70458;BME280;57919;56.194;95.716;2023-07-13T15:40:58;98403.81;;;21.80;55.05
70458;BME280;57919;56.194;95.716;2023-07-13T15:51:02;98406.63;;;21.74;55.32
70458;BME280;57919;56.194;95.716;2023-07-13T16:01:08;98397.28;;;21.75;55.46
70458;BME280;57919;56.194;95.716;2023-07-13T16:11:20;98399.66;;;21.71;55.76
70458;BME280;57919;56.194;95.716;2023-07-13T16:21:26;98381.34;;;21.58;56.71
70458;BME280;57919;56.194;95.716;2023-07-13T16:31:31;98395.47;;;21.44;57.37
70458;BME280;57919;56.194;95.716;2023-07-13T16:41:34;98400.09;;;21.18;58.65
70458;BME280;57919;56.194;95.716;2023-07-13T16:51:35;98387.22;;;21.12;58.66
70458;BME280;57919;56.194;95.716;2023-07-13T17:01:40;98384.88;;;21.16;59.60
70458;BME280;57919;56.194;95.716;2023-07-13T17:11:43;98385.53;;;21.11;60.36
70458;BME280;57919;56.194;95.716;2023-07-13T17:21:47;98387.09;;;21.01;61.35
70458;BME280;57919;56.194;95.716;2023-07-13T17:31:50;98375.78;;;20.84;62.49
70458;BME280;57919;56.194;95.716;2023-07-13T17:41:53;98386.47;;;20.67;63.36
70458;BME280;57919;56.194;95.716;2023-07-13T17:51:56;98377.50;;;20.47;64.59
70458;BME280;57919;56.194;95.716;2023-07-13T18:02:01;98388.75;;;20.39;65.10
70458;BME280;57919;56.194;95.716;2023-07-13T18:12:07;98372.25;;;20.32;65.16
70458;BME280;57919;56.194;95.716;2023-07-13T18:22:13;98365.91;;;20.31;65.79
70458;BME280;57919;56.194;95.716;2023-07-13T18:32:18;98353.31;;;20.11;67.09
70458;BME280;57919;56.194;95.716;2023-07-13T18:42:24;98345.69;;;20.19;66.94
70458;BME280;57919;56.194;95.716;2023-07-13T18:52:26;98335.13;;;20.16;67.14
70458;BME280;57919;56.194;95.716;2023-07-13T19:02:30;98315.72;;;20.11;67.54
70458;BME280;57919;56.194;95.716;2023-07-13T19:12:32;98330.66;;;19.77;69.87
70458;BME280;57919;56.194;95.716;2023-07-13T19:22:36;98334.06;;;19.46;69.82
70458;BME280;57919;56.194;95.716;2023-07-13T19:32:40;98337.84;;;19.65;69.47
70458;BME280;57919;56.194;95.716;2023-07-13T19:42:42;98328.34;;;19.67;69.23
70458;BME280;57919;56.194;95.716;2023-07-13T19:52:48;98315.50;;;19.61;68.85
70458;BME280;57919;56.194;95.716;2023-07-13T20:02:52;98345.47;;;19.63;69.18
70458;BME280;57919;56.194;95.716;2023-07-13T20:12:57;98345.03;;;19.40;69.65
70458;BME280;57919;56.194;95.716;2023-07-13T20:23:13;98354.34;;;19.25;69.77
70458;BME280;57919;56.194;95.716;2023-07-13T20:33:21;98374.81;;;19.23;69.97
70458;BME280;57919;56.194;95.716;2023-07-13T20:43:24;98369.31;;;18.96;70.19
70458;BME280;57919;56.194;95.716;2023-07-13T20:53:26;98380.47;;;18.82;70.74
70458;BME280;57919;56.194;95.716;2023-07-13T21:03:30;98377.94;;;18.74;70.88
70458;BME280;57919;56.194;95.716;2023-07-13T21:13:33;98378.38;;;18.84;71.04
70458;BME280;57919;56.194;95.716;2023-07-13T21:23:36;98385.75;;;18.90;70.71
70458;BME280;57919;56.194;95.716;2023-07-13T21:33:39;98382.56;;;18.80;71.01
70458;BME280;57919;56.194;95.716;2023-07-13T21:43:42;98401.56;;;18.81;71.42
70458;BME280;57919;56.194;95.716;2023-07-13T21:53:44;98415.66;;;18.78;71.33
70458;BME280;57919;56.194;95.716;2023-07-13T22:03:54;98416.72;;;18.77;71.30
70458;BME280;57919;56.194;95.716;2023-07-13T22:13:57;98440.78;;;18.88;71.49
70458;BME280;57919;56.194;95.716;2023-07-13T22:23:59;98442.50;;;19.09;71.19
70458;BME280;57919;56.194;95.716;2023-07-13T22:34:02;98452.44;;;19.30;70.71
70458;BME280;57919;56.194;95.716;2023-07-13T22:44:18;98450.75;;;19.49;70.74
70458;BME280;57919;56.194;95.716;2023-07-13T22:54:20;98432.63;;;19.54;70.55
70458;BME280;57919;56.194;95.716;2023-07-13T23:04:30;98440.84;;;19.74;70.20
70458;BME280;57919;56.194;95.716;2023-07-13T23:14:33;98446.13;;;19.76;70.44
70458;BME280;57919;56.194;95.716;2023-07-13T23:24:35;98444.66;;;19.66;70.98
70458;BME280;57919;56.194;95.716;2023-07-13T23:34:38;98422.09;;;19.58;71.87
70458;BME280;57919;56.194;95.716;2023-07-13T23:44:40;98422.19;;;20.09;70.64
70458;BME280;57919;56.194;95.716;2023-07-13T23:54:41;98415.94;;;20.91;69.04
